sensor_id;sensor_type;location;lat;lon;timestamp;pressure;altitude;pressure_sealevel;temperature;humidity
70338;BME280;57757;53.198;19.646;2023-04-29T00:00:21;100088.20;;;7.44;34.29
70338;BME280;57757;53.198;19.646;2023-04-29T00:03:10;100084.58;;;7.44;34.18
70338;BME280;57757;53.198;19.646;2023-04-29T00:05:38;100079.39;;;7.44;34.22
70338;BME280;57757;53.198;19.646;2023-04-29T00:08:06;100080.06;;;7.44;34.44
70338;BME280;57757;53.198;19.646;2023-04-29T00:10:34;100078.49;;;7.47;34.41
70338;BME280;57757;53.198;19.646;2023-04-29T00:13:02;100079.84;;;7.49;34.56
70338;BME280;57757;53.198;19.646;2023-04-29T00:15:30;100077.42;;;7.50;34.46
70338;BME280;57757;53.198;19.646;2023-04-29T00:17:58;100078.80;;;7.51;34.64
70338;BME280;57757;53.198;19.646;2023-04-29T00:20:26;100078.77;;;7.52;34.59
70338;BME280;57757;53.198;19.646;2023-04-29T00:22:55;100077.73;;;7.52;34.65
70338;BME280;57757;53.198;19.646;2023-04-29T00:25:22;100076.51;;;7.53;34.61
70338;BME280;57757;53.198;19.646;2023-04-29T00:27:50;100074.21;;;7.56;34.80
70338;BME280;57757;53.198;19.646;2023-04-29T00:30:18;100071.42;;;7.58;34.80
70338;BME280;57757;53.198;19.646;2023-04-29T00:32:45;100074.15;;;7.61;34.83
70338;BME280;57757;53.198;19.646;2023-04-29T00:35:17;100071.36;;;7.63;34.85
70338;BME280;57757;53.198;19.646;2023-04-29T00:37:46;100069.08;;;7.65;35.02
70338;BME280;57757;53.198;19.646;2023-04-29T00:40:19;100072.70;;;7.66;34.84
70338;BME280;57757;53.198;19.646;2023-04-29T00:42:47;100072.00;;;7.67;35.00
70338;BME280;57757;53.198;19.646;2023-04-29T00:45:15;100066.77;;;7.69;35.03
70338;BME280;57757;53.198;19.646;2023-04-29T00:47:43;100061.39;;;7.70;35.07
70338;BME280;57757;53.198;19.646;2023-04-29T00:50:10;100058.95;;;7.71;35.16
70338;BME280;57757;53.198;19.646;2023-04-29T00:52:39;100059.98;;;7.72;35.23
70338;BME280;57757;53.198;19.646;2023-04-29T00:55:07;100058.95;;;7.71;35.31
70338;BME280;57757;53.198;19.646;2023-04-29T00:57:35;100057.76;;;7.70;35.27
70338;BME280;57757;53.198;19.646;2023-04-29T01:00:04;100057.25;;;7.69;35.33
70338;BME280;57757;53.198;19.646;2023-04-29T01:02:32;100057.62;;;7.68;35.34
70338;BME280;57757;53.198;19.646;2023-04-29T01:05:01;100057.80;;;7.67;35.49
70338;BME280;57757;53.198;19.646;2023-04-29T01:07:49;100055.58;;;7.66;35.47
70338;BME280;57757;53.198;19.646;2023-04-29T01:10:47;100052.64;;;7.63;35.54
70338;BME280;57757;53.198;19.646;2023-04-29T01:13:13;100050.45;;;7.60;35.65
70338;BME280;57757;53.198;19.646;2023-04-29T01:21:24;100050.58;;;7.51;35.89
70338;BME280;57757;53.198;19.646;2023-04-29T01:23:52;100053.54;;;7.49;35.92
70338;BME280;57757;53.198;19.646;2023-04-29T01:26:23;100051.33;;;7.47;36.00
70338;BME280;57757;53.198;19.646;2023-04-29T01:29:02;100052.39;;;7.45;36.12
70338;BME280;57757;53.198;19.646;2023-04-29T01:34:58;100046.55;;;7.40;36.11
70338;BME280;57757;53.198;19.646;2023-04-29T01:37:44;100044.86;;;7.37;36.24
70338;BME280;57757;53.198;19.646;2023-04-29T01:40:21;100039.55;;;7.36;36.40
70338;BME280;57757;53.198;19.646;2023-04-29T01:43:00;100039.92;;;7.33;36.45
70338;BME280;57757;53.198;19.646;2023-04-29T01:45:30;100039.95;;;7.30;36.44
70338;BME280;57757;53.198;19.646;2023-04-29T01:47:59;100042.76;;;7.26;36.55
70338;BME280;57757;53.198;19.646;2023-04-29T01:50:29;100040.88;;;7.25;36.59
70338;BME280;57757;53.198;19.646;2023-04-29T01:52:57;100045.92;;;7.21;36.62
70338;BME280;57757;53.198;19.646;2023-04-29T01:55:25;100044.92;;;7.19;36.70
70338;BME280;57757;53.198;19.646;2023-04-29T01:57:52;100042.35;;;7.17;36.92
70338;BME280;57757;53.198;19.646;2023-04-29T02:00:20;100042.56;;;7.14;36.94
70338;BME280;57757;53.198;19.646;2023-04-29T02:02:48;100038.27;;;7.12;37.02
70338;BME280;57757;53.198;19.646;2023-04-29T02:05:15;100036.71;;;7.11;37.05
70338;BME280;57757;53.198;19.646;2023-04-29T02:07:43;100033.25;;;7.12;37.13
70338;BME280;57757;53.198;19.646;2023-04-29T02:10:11;100028.59;;;7.11;37.19
70338;BME280;57757;53.198;19.646;2023-04-29T02:12:38;100029.63;;;7.11;37.22
70338;BME280;57757;53.198;19.646;2023-04-29T02:15:07;100029.98;;;7.09;37.28
70338;BME280;57757;53.198;19.646;2023-04-29T02:17:35;100031.39;;;7.09;37.44
70338;BME280;57757;53.198;19.646;2023-04-29T02:20:03;100030.70;;;7.09;37.42
70338;BME280;57757;53.198;19.646;2023-04-29T02:22:30;100032.95;;;7.09;37.41
70338;BME280;57757;53.198;19.646;2023-04-29T02:24:58;100033.80;;;7.08;37.61
70338;BME280;57757;53.198;19.646;2023-04-29T02:27:25;100031.75;;;7.08;37.49
70338;BME280;57757;53.198;19.646;2023-04-29T02:29:53;100034.70;;;7.06;37.62
70338;BME280;57757;53.198;19.646;2023-04-29T02:32:21;100030.55;;;7.05;37.62
70338;BME280;57757;53.198;19.646;2023-04-29T02:34:48;100029.37;;;7.04;37.77
70338;BME280;57757;53.198;19.646;2023-04-29T02:37:16;100031.79;;;7.05;37.97
70338;BME280;57757;53.198;19.646;2023-04-29T02:39:43;100026.42;;;7.05;37.96
70338;BME280;57757;53.198;19.646;2023-04-29T02:42:11;100029.17;;;7.05;37.97
70338;BME280;57757;53.198;19.646;2023-04-29T02:44:39;100027.46;;;7.04;37.94
70338;BME280;57757;53.198;19.646;2023-04-29T02:47:08;100024.50;;;7.06;38.00
70338;BME280;57757;53.198;19.646;2023-04-29T02:49:35;100020.52;;;7.07;38.07
70338;BME280;57757;53.198;19.646;2023-04-29T02:52:03;100023.44;;;7.08;38.14
70338;BME280;57757;53.198;19.646;2023-04-29T02:54:31;100013.38;;;7.10;38.19
70338;BME280;57757;53.198;19.646;2023-04-29T02:56:58;100010.79;;;7.11;38.21
70338;BME280;57757;53.198;19.646;2023-04-29T02:59:26;100017.86;;;7.12;38.31
70338;BME280;57757;53.198;19.646;2023-04-29T03:01:54;100009.52;;;7.14;38.28
70338;BME280;57757;53.198;19.646;2023-04-29T03:04:21;100013.29;;;7.17;38.33
70338;BME280;57757;53.198;19.646;2023-04-29T03:06:49;100005.17;;;7.16;38.36
70338;BME280;57757;53.198;19.646;2023-04-29T03:09:17;100004.12;;;7.18;38.51
70338;BME280;57757;53.198;19.646;2023-04-29T03:11:45;100007.73;;;7.19;38.39
70338;BME280;57757;53.198;19.646;2023-04-29T03:14:12;100001.87;;;7.19;38.46
70338;BME280;57757;53.198;19.646;2023-04-29T03:16:40;100002.55;;;7.19;38.47
70338;BME280;57757;53.198;19.646;2023-04-29T03:19:09;100000.99;;;7.19;38.49
70338;BME280;57757;53.198;19.646;2023-04-29T03:21:37;99993.22;;;7.19;38.60
70338;BME280;57757;53.198;19.646;2023-04-29T03:24:04;99994.06;;;7.20;38.66
70338;BME280;57757;53.198;19.646;2023-04-29T03:26:33;99992.49;;;7.21;38.69
70338;BME280;57757;53.198;19.646;2023-04-29T03:29:01;99990.94;;;7.21;38.71
70338;BME280;57757;53.198;19.646;2023-04-29T03:31:29;99989.39;;;7.20;38.67
70338;BME280;57757;53.198;19.646;2023-04-29T03:33:56;99991.09;;;7.22;39.01
70338;BME280;57757;53.198;19.646;2023-04-29T03:36:24;99993.16;;;7.24;38.89
70338;BME280;57757;53.198;19.646;2023-04-29T03:38:52;99995.89;;;7.27;39.05
70338;BME280;57757;53.198;19.646;2023-04-29T03:41:19;99998.77;;;7.31;38.96
70338;BME280;57757;53.198;19.646;2023-04-29T03:43:47;100000.47;;;7.33;39.05
70338;BME280;57757;53.198;19.646;2023-04-29T03:46:14;99995.45;;;7.34;39.07
70338;BME280;57757;53.198;19.646;2023-04-29T03:48:42;99997.32;;;7.36;39.14
70338;BME280;57757;53.198;19.646;2023-04-29T03:51:10;99996.22;;;7.40;39.25
70338;BME280;57757;53.198;19.646;2023-04-29T03:53:38;99988.05;;;7.43;39.17
70338;BME280;57757;53.198;19.646;2023-04-29T03:56:06;99990.78;;;7.46;39.30
70338;BME280;57757;53.198;19.646;2023-04-29T03:58:34;99991.42;;;7.50;39.23
70338;BME280;57757;53.198;19.646;2023-04-29T04:01:01;99989.14;;;7.51;39.22
70338;BME280;57757;53.198;19.646;2023-04-29T04:03:29;99985.14;;;7.53;39.22
70338;BME280;57757;53.198;19.646;2023-04-29T04:05:57;99989.27;;;7.55;39.28
70338;BME280;57757;53.198;19.646;2023-04-29T04:08:24;99989.59;;;7.57;39.41
70338;BME280;57757;53.198;19.646;2023-04-29T04:10:52;99990.76;;;7.60;39.40
70338;BME280;57757;53.198;19.646;2023-04-29T04:13:20;99988.45;;;7.63;39.41
70338;BME280;57757;53.198;19.646;2023-04-29T04:15:49;99985.62;;;7.67;39.52
70338;BME280;57757;53.198;19.646;2023-04-29T04:18:18;99982.98;;;7.71;39.50
70338;BME280;57757;53.198;19.646;2023-04-29T04:20:45;99984.44;;;7.76;39.59
70338;BME280;57757;53.198;19.646;2023-04-29T04:23:13;99980.39;;;7.81;39.58
70338;BME280;57757;53.198;19.646;2023-04-29T04:25:46;99982.59;;;7.84;39.55
70338;BME280;57757;53.198;19.646;2023-04-29T04:28:14;99982.02;;;7.88;39.48
70338;BME280;57757;53.198;19.646;2023-04-29T04:30:42;99986.13;;;7.90;39.59
70338;BME280;57757;53.198;19.646;2023-04-29T04:33:09;99990.23;;;7.94;39.48
70338;BME280;57757;53.198;19.646;2023-04-29T04:35:37;99988.25;;;7.99;39.63
70338;BME280;57757;53.198;19.646;2023-04-29T04:38:06;99987.45;;;8.05;39.57
70338;BME280;57757;53.198;19.646;2023-04-29T04:40:35;99982.64;;;8.14;39.77
70338;BME280;57757;53.198;19.646;2023-04-29T04:43:02;99984.92;;;8.22;39.78
70338;BME280;57757;53.198;19.646;2023-04-29T04:45:30;99988.29;;;8.29;39.76
70338;BME280;57757;53.198;19.646;2023-04-29T04:47:58;99983.82;;;8.37;39.58
70338;BME280;57757;53.198;19.646;2023-04-29T04:50:29;99981.24;;;8.46;39.69
70338;BME280;57757;53.198;19.646;2023-04-29T04:52:57;99980.20;;;8.56;39.64
70338;BME280;57757;53.198;19.646;2023-04-29T04:55:25;99977.26;;;8.65;39.70
70338;BME280;57757;53.198;19.646;2023-04-29T04:57:54;99981.23;;;8.74;39.71
70338;BME280;57757;53.198;19.646;2023-04-29T05:00:27;99978.12;;;8.82;39.64
70338;BME280;57757;53.198;19.646;2023-04-29T05:02:58;99979.66;;;8.92;39.70
70338;BME280;57757;53.198;19.646;2023-04-29T05:05:26;99977.04;;;9.02;39.56
70338;BME280;57757;53.198;19.646;2023-04-29T05:07:54;99976.50;;;9.11;39.46
70338;BME280;57757;53.198;19.646;2023-04-29T05:10:21;99977.41;;;9.18;39.55
70338;BME280;57757;53.198;19.646;2023-04-29T05:12:52;99982.91;;;9.28;39.53
70338;BME280;57757;53.198;19.646;2023-04-29T05:15:20;99973.27;;;9.41;39.58
70338;BME280;57757;53.198;19.646;2023-04-29T05:17:47;99974.55;;;9.53;39.68
70338;BME280;57757;53.198;19.646;2023-04-29T05:20:15;99977.38;;;9.65;39.59
70338;BME280;57757;53.198;19.646;2023-04-29T05:22:43;99979.38;;;9.77;39.71
70338;BME280;57757;53.198;19.646;2023-04-29T05:25:10;99981.03;;;9.88;39.57
70338;BME280;57757;53.198;19.646;2023-04-29T05:27:39;99980.63;;;9.97;39.56
70338;BME280;57757;53.198;19.646;2023-04-29T05:30:07;99977.44;;;10.07;39.59
70338;BME280;57757;53.198;19.646;2023-04-29T05:32:34;99979.30;;;10.17;39.41
70338;BME280;57757;53.198;19.646;2023-04-29T05:35:02;99979.53;;;10.22;39.40
70338;BME280;57757;53.198;19.646;2023-04-29T05:37:33;99983.36;;;10.29;39.34
70338;BME280;57757;53.198;19.646;2023-04-29T05:40:01;99989.66;;;10.33;39.47
70338;BME280;57757;53.198;19.646;2023-04-29T05:42:29;99987.79;;;10.38;39.26
70338;BME280;57757;53.198;19.646;2023-04-29T05:44:56;99992.36;;;10.43;39.38
70338;BME280;57757;53.198;19.646;2023-04-29T05:47:24;99991.62;;;10.52;39.41
70338;BME280;57757;53.198;19.646;2023-04-29T05:49:52;99992.25;;;10.60;39.45
70338;BME280;57757;53.198;19.646;2023-04-29T05:52:20;99993.27;;;10.68;39.47
70338;BME280;57757;53.198;19.646;2023-04-29T05:54:48;99995.88;;;10.74;39.30
70338;BME280;57757;53.198;19.646;2023-04-29T05:57:15;99994.69;;;10.79;39.24
70338;BME280;57757;53.198;19.646;2023-04-29T05:59:43;99996.10;;;10.85;39.27
70338;BME280;57757;53.198;19.646;2023-04-29T06:02:11;99994.19;;;10.91;39.34
70338;BME280;57757;53.198;19.646;2023-04-29T06:04:39;99992.32;;;10.96;39.26
70338;BME280;57757;53.198;19.646;2023-04-29T06:07:08;99990.36;;;10.97;39.13
70338;BME280;57757;53.198;19.646;2023-04-29T06:09:36;99993.04;;;11.01;39.11
70338;BME280;57757;53.198;19.646;2023-04-29T06:12:04;99995.76;;;11.04;39.18
70338;BME280;57757;53.198;19.646;2023-04-29T06:14:32;99995.13;;;11.08;39.23
70338;BME280;57757;53.198;19.646;2023-04-29T06:16:59;99997.33;;;11.16;39.19
70338;BME280;57757;53.198;19.646;2023-04-29T06:19:27;99996.86;;;11.26;39.18
70338;BME280;57757;53.198;19.646;2023-04-29T06:21:54;99996.14;;;11.38;39.28
70338;BME280;57757;53.198;19.646;2023-04-29T06:24:22;99995.59;;;11.51;39.24
70338;BME280;57757;53.198;19.646;2023-04-29T06:26:49;99996.05;;;11.59;39.26
70338;BME280;57757;53.198;19.646;2023-04-29T06:29:17;99995.26;;;11.68;39.10
70338;BME280;57757;53.198;19.646;2023-04-29T06:31:45;99997.10;;;11.76;39.29
70338;BME280;57757;53.198;19.646;2023-04-29T06:34:13;99992.29;;;11.85;39.25
70338;BME280;57757;53.198;19.646;2023-04-29T06:36:40;99987.54;;;11.92;39.16
70338;BME280;57757;53.198;19.646;2023-04-29T06:39:08;99987.81;;;12.00;39.23
70338;BME280;57757;53.198;19.646;2023-04-29T06:41:35;99985.58;;;12.04;39.14
70338;BME280;57757;53.198;19.646;2023-04-29T06:44:03;99983.28;;;12.10;39.15
70338;BME280;57757;53.198;19.646;2023-04-29T06:46:31;99982.94;;;12.20;39.33
70338;BME280;57757;53.198;19.646;2023-04-29T06:48:59;99982.36;;;12.32;39.14
70338;BME280;57757;53.198;19.646;2023-04-29T06:51:26;99978.55;;;12.42;39.24
70338;BME280;57757;53.198;19.646;2023-04-29T06:53:55;99977.49;;;12.52;39.21
70338;BME280;57757;53.198;19.646;2023-04-29T06:56:23;99972.42;;;12.67;39.20
70338;BME280;57757;53.198;19.646;2023-04-29T06:58:50;99969.02;;;12.84;39.17
70338;BME280;57757;53.198;19.646;2023-04-29T07:01:18;99969.62;;;13.02;39.12
70338;BME280;57757;53.198;19.646;2023-04-29T07:03:45;99966.98;;;13.17;39.08
70338;BME280;57757;53.198;19.646;2023-04-29T07:06:13;99962.98;;;13.30;39.11
70338;BME280;57757;53.198;19.646;2023-04-29T07:08:41;99958.45;;;13.44;39.03
70338;BME280;57757;53.198;19.646;2023-04-29T07:11:08;99959.83;;;13.53;38.91
70338;BME280;57757;53.198;19.646;2023-04-29T07:13:36;99964.73;;;13.61;38.85
70338;BME280;57757;53.198;19.646;2023-04-29T07:16:04;99958.88;;;13.68;38.74
70338;BME280;57757;53.198;19.646;2023-04-29T07:18:32;99960.27;;;13.72;38.80
70338;BME280;57757;53.198;19.646;2023-04-29T07:21:01;99959.05;;;13.81;38.84
70338;BME280;57757;53.198;19.646;2023-04-29T07:23:29;99956.72;;;13.91;38.89
70338;BME280;57757;53.198;19.646;2023-04-29T07:25:56;99960.36;;;14.05;38.82
70338;BME280;57757;53.198;19.646;2023-04-29T07:28:24;99954.79;;;14.17;38.79
70338;BME280;57757;53.198;19.646;2023-04-29T07:30:52;99958.91;;;14.27;38.72
70338;BME280;57757;53.198;19.646;2023-04-29T07:33:19;99955.90;;;14.32;38.56
70338;BME280;57757;53.198;19.646;2023-04-29T07:35:47;99956.06;;;14.37;38.66
70338;BME280;57757;53.198;19.646;2023-04-29T07:38:15;99956.30;;;14.48;38.70
70338;BME280;57757;53.198;19.646;2023-04-29T07:40:42;99950.47;;;14.57;38.60
70338;BME280;57757;53.198;19.646;2023-04-29T07:43:10;99951.11;;;14.66;38.68
70338;BME280;57757;53.198;19.646;2023-04-29T07:45:38;99951.78;;;14.75;38.56
70338;BME280;57757;53.198;19.646;2023-04-29T07:48:08;99950.98;;;14.81;38.41
70338;BME280;57757;53.198;19.646;2023-04-29T07:50:36;99948.67;;;14.86;38.48
70338;BME280;57757;53.198;19.646;2023-04-29T07:53:04;99946.38;;;14.98;38.60
70338;BME280;57757;53.198;19.646;2023-04-29T07:55:32;99939.95;;;15.20;38.67
70338;BME280;57757;53.198;19.646;2023-04-29T07:58:00;99940.27;;;15.39;38.58
70338;BME280;57757;53.198;19.646;2023-04-29T08:00:27;99941.04;;;15.56;38.51
70338;BME280;57757;53.198;19.646;2023-04-29T08:02:55;99943.28;;;15.75;38.50
70338;BME280;57757;53.198;19.646;2023-04-29T08:05:24;99943.67;;;15.93;38.28
70338;BME280;57757;53.198;19.646;2023-04-29T08:07:53;99946.90;;;16.05;38.27
70338;BME280;57757;53.198;19.646;2023-04-29T08:10:20;99946.77;;;16.18;38.31
70338;BME280;57757;53.198;19.646;2023-04-29T08:12:49;99945.63;;;16.34;38.17
70338;BME280;57757;53.198;19.646;2023-04-29T08:15:17;99948.95;;;16.48;38.22
70338;BME280;57757;53.198;19.646;2023-04-29T08:17:46;99949.06;;;16.66;38.27
70338;BME280;57757;53.198;19.646;2023-04-29T08:20:13;99947.98;;;16.84;38.10
70338;BME280;57757;53.198;19.646;2023-04-29T08:22:41;99944.92;;;17.01;38.05
70338;BME280;57757;53.198;19.646;2023-04-29T08:25:09;99945.80;;;17.14;37.91
70338;BME280;57757;53.198;19.646;2023-04-29T08:27:36;99942.57;;;17.25;37.89
70338;BME280;57757;53.198;19.646;2023-04-29T08:30:05;99945.67;;;17.36;37.76
70338;BME280;57757;53.198;19.646;2023-04-29T08:32:32;99946.10;;;17.44;37.50
70338;BME280;57757;53.198;19.646;2023-04-29T08:35:01;99943.31;;;17.50;37.61
70338;BME280;57757;53.198;19.646;2023-04-29T08:37:29;99940.39;;;17.55;37.39
70338;BME280;57757;53.198;19.646;2023-04-29T08:39:56;99940.16;;;17.56;37.18
70338;BME280;57757;53.198;19.646;2023-04-29T08:42:40;99942.72;;;17.54;37.10
70338;BME280;57757;53.198;19.646;2023-04-29T08:45:14;99941.91;;;17.53;37.21
70338;BME280;57757;53.198;19.646;2023-04-29T08:47:46;99938.05;;;17.56;37.31
70338;BME280;57757;53.198;19.646;2023-04-29T08:50:15;99936.59;;;17.60;37.21
70338;BME280;57757;53.198;19.646;2023-04-29T08:52:44;99937.90;;;17.65;37.19
70338;BME280;57757;53.198;19.646;2023-04-29T08:55:12;99941.27;;;17.71;37.17
70338;BME280;57757;53.198;19.646;2023-04-29T08:57:40;99933.34;;;17.78;37.11
70338;BME280;57757;53.198;19.646;2023-04-29T09:00:12;99934.45;;;17.86;37.09
70338;BME280;57757;53.198;19.646;2023-04-29T09:02:49;99935.81;;;17.92;37.05
70338;BME280;57757;53.198;19.646;2023-04-29T09:05:18;99941.33;;;17.92;36.91
70338;BME280;57757;53.198;19.646;2023-04-29T09:07:47;99938.30;;;17.92;36.91
70338;BME280;57757;53.198;19.646;2023-04-29T09:10:18;99939.00;;;17.95;36.84
70338;BME280;57757;53.198;19.646;2023-04-29T09:12:47;99935.80;;;17.96;36.83
70338;BME280;57757;53.198;19.646;2023-04-29T09:15:14;99936.30;;;17.99;36.77
70338;BME280;57757;53.198;19.646;2023-04-29T09:17:46;99935.02;;;18.03;36.87
70338;BME280;57757;53.198;19.646;2023-04-29T09:22:52;99933.95;;;18.13;36.81
70338;BME280;57757;53.198;19.646;2023-04-29T09:25:20;99938.11;;;18.23;36.84
70338;BME280;57757;53.198;19.646;2023-04-29T09:27:48;99935.73;;;18.24;36.75
70338;BME280;57757;53.198;19.646;2023-04-29T09:30:15;99933.35;;;18.23;36.45
70338;BME280;57757;53.198;19.646;2023-04-29T09:32:43;99933.09;;;18.21;36.44
70338;BME280;57757;53.198;19.646;2023-04-29T09:35:28;99934.78;;;18.28;36.54
70338;BME280;57757;53.198;19.646;2023-04-29T09:38:12;99933.71;;;18.31;36.39
70338;BME280;57757;53.198;19.646;2023-04-29T09:40:41;99931.29;;;18.36;36.40
70338;BME280;57757;53.198;19.646;2023-04-29T09:43:25;99932.40;;;18.44;36.48
70338;BME280;57757;53.198;19.646;2023-04-29T09:45:53;99924.62;;;18.54;36.41
70338;BME280;57757;53.198;19.646;2023-04-29T09:48:21;99927.55;;;18.70;36.50
70338;BME280;57757;53.198;19.646;2023-04-29T09:51:03;99927.53;;;18.79;36.20
70338;BME280;57757;53.198;19.646;2023-04-29T09:53:32;99924.54;;;18.82;36.04
70338;BME280;57757;53.198;19.646;2023-04-29T09:56:04;99922.98;;;18.92;36.26
70338;BME280;57757;53.198;19.646;2023-04-29T09:58:33;99919.52;;;19.08;36.23
70338;BME280;57757;53.198;19.646;2023-04-29T10:01:05;99918.61;;;19.22;36.13
70338;BME280;57757;53.198;19.646;2023-04-29T10:03:37;99914.08;;;19.27;35.81
70338;BME280;57757;53.198;19.646;2023-04-29T10:06:07;99911.66;;;19.32;35.96
70338;BME280;57757;53.198;19.646;2023-04-29T10:08:35;99911.96;;;19.38;35.84
70338;BME280;57757;53.198;19.646;2023-04-29T10:11:04;99910.07;;;19.40;35.72
70338;BME280;57757;53.198;19.646;2023-04-29T10:13:34;99907.22;;;19.55;35.87
70338;BME280;57757;53.198;19.646;2023-04-29T10:18:53;99903.88;;;19.84;35.63
70338;BME280;57757;53.198;19.646;2023-04-29T10:21:29;99904.91;;;20.00;35.58
70338;BME280;57757;53.198;19.646;2023-04-29T10:24:01;99902.84;;;20.18;35.42
70338;BME280;57757;53.198;19.646;2023-04-29T10:26:29;99901.26;;;20.25;35.35
70338;BME280;57757;53.198;19.646;2023-04-29T10:28:59;99897.17;;;20.32;35.32
70338;BME280;57757;53.198;19.646;2023-04-29T10:31:27;99890.93;;;20.32;35.16
70338;BME280;57757;53.198;19.646;2023-04-29T10:33:59;99888.38;;;20.28;34.91
70338;BME280;57757;53.198;19.646;2023-04-29T10:36:28;99889.70;;;20.24;34.96
70338;BME280;57757;53.198;19.646;2023-04-29T10:39:00;99886.48;;;20.17;34.79
70338;BME280;57757;53.198;19.646;2023-04-29T10:41:34;99890.00;;;20.04;34.60
70338;BME280;57757;53.198;19.646;2023-04-29T10:44:03;99887.30;;;19.89;34.53
70338;BME280;57757;53.198;19.646;2023-04-29T10:46:31;99883.46;;;19.73;34.56
70338;BME280;57757;53.198;19.646;2023-04-29T10:49:01;99880.67;;;19.59;34.51
70338;BME280;57757;53.198;19.646;2023-04-29T10:51:40;99880.46;;;19.49;34.73
70338;BME280;57757;53.198;19.646;2023-04-29T10:54:12;99878.48;;;19.55;34.78
70338;BME280;57757;53.198;19.646;2023-04-29T10:56:45;99871.61;;;19.68;34.94
70338;BME280;57757;53.198;19.646;2023-04-29T10:59:19;99870.86;;;19.79;34.85
70338;BME280;57757;53.198;19.646;2023-04-29T11:01:50;99868.42;;;19.89;34.84
70338;BME280;57757;53.198;19.646;2023-04-29T11:04:19;99860.56;;;19.96;34.77
70338;BME280;57757;53.198;19.646;2023-04-29T11:06:51;99861.16;;;20.00;34.59
70338;BME280;57757;53.198;19.646;2023-04-29T11:12:09;99845.48;;;20.13;34.58
70338;BME280;57757;53.198;19.646;2023-04-29T11:14:42;99844.73;;;20.26;34.50
70338;BME280;57757;53.198;19.646;2023-04-29T11:17:14;99840.13;;;20.39;34.48
70338;BME280;57757;53.198;19.646;2023-04-29T11:19:44;99832.63;;;20.63;34.44
70338;BME280;57757;53.198;19.646;2023-04-29T11:24:55;99830.36;;;21.95;34.56
70338;BME280;57757;53.198;19.646;2023-04-29T11:27:32;99825.31;;;22.51;34.21
70338;BME280;57757;53.198;19.646;2023-04-29T11:30:01;99825.20;;;23.08;33.71
70338;BME280;57757;53.198;19.646;2023-04-29T11:32:39;99824.89;;;23.54;33.50
70338;BME280;57757;53.198;19.646;2023-04-29T11:35:14;99827.26;;;23.80;33.25
70338;BME280;57757;53.198;19.646;2023-04-29T11:37:44;99825.16;;;23.71;32.63
70338;BME280;57757;53.198;19.646;2023-04-29T11:40:14;99826.64;;;23.43;32.45
70338;BME280;57757;53.198;19.646;2023-04-29T11:42:47;99823.73;;;23.04;32.36
70338;BME280;57757;53.198;19.646;2023-04-29T11:45:17;99823.41;;;22.75;32.43
70338;BME280;57757;53.198;19.646;2023-04-29T11:47:46;99826.42;;;22.46;32.26
70338;BME280;57757;53.198;19.646;2023-04-29T11:50:16;99826.85;;;22.18;32.26
70338;BME280;57757;53.198;19.646;2023-04-29T11:52:48;99827.04;;;22.02;32.34
70338;BME280;57757;53.198;19.646;2023-04-29T11:55:16;99826.14;;;21.95;32.36
70338;BME280;57757;53.198;19.646;2023-04-29T11:57:48;99822.88;;;21.91;32.44
70338;BME280;57757;53.198;19.646;2023-04-29T12:00:18;99818.13;;;21.81;32.25
70338;BME280;57757;53.198;19.646;2023-04-29T12:02:46;99817.22;;;21.75;32.27
70338;BME280;57757;53.198;19.646;2023-04-29T12:05:14;99815.75;;;21.71;32.32
70338;BME280;57757;53.198;19.646;2023-04-29T12:07:44;99819.16;;;21.56;32.04
70338;BME280;57757;53.198;19.646;2023-04-29T12:10:11;99806.95;;;21.42;32.10
70338;BME280;57757;53.198;19.646;2023-04-29T12:12:39;99815.52;;;21.31;32.03
70338;BME280;57757;53.198;19.646;2023-04-29T12:15:10;99812.35;;;21.14;32.01
70338;BME280;57757;53.198;19.646;2023-04-29T12:17:39;99809.95;;;21.01;31.89
70338;BME280;57757;53.198;19.646;2023-04-29T12:20:08;99811.18;;;20.81;31.89
70338;BME280;57757;53.198;19.646;2023-04-29T12:22:37;99807.74;;;20.60;31.91
70338;BME280;57757;53.198;19.646;2023-04-29T12:25:05;99805.02;;;20.46;32.03
70338;BME280;57757;53.198;19.646;2023-04-29T12:27:39;99804.80;;;20.42;32.26
70338;BME280;57757;53.198;19.646;2023-04-29T12:30:08;99805.96;;;20.35;32.08
70338;BME280;57757;53.198;19.646;2023-04-29T12:32:44;99806.20;;;20.32;32.33
70338;BME280;57757;53.198;19.646;2023-04-29T12:35:16;99803.58;;;20.32;32.13
70338;BME280;57757;53.198;19.646;2023-04-29T12:37:47;99798.16;;;20.33;32.38
70338;BME280;57757;53.198;19.646;2023-04-29T12:40:16;99792.72;;;20.45;32.46
70338;BME280;57757;53.198;19.646;2023-04-29T12:42:43;99791.42;;;20.59;32.40
70338;BME280;57757;53.198;19.646;2023-04-29T12:45:31;99794.02;;;20.62;32.30
70338;BME280;57757;53.198;19.646;2023-04-29T12:48:00;99789.32;;;20.59;32.25
70338;BME280;57757;53.198;19.646;2023-04-29T12:50:36;99788.66;;;20.53;32.12
70338;BME280;57757;53.198;19.646;2023-04-29T12:53:05;99784.73;;;20.45;32.21
70338;BME280;57757;53.198;19.646;2023-04-29T12:55:35;99785.11;;;20.45;32.36
70338;BME280;57757;53.198;19.646;2023-04-29T12:58:04;99781.02;;;20.51;32.37
70338;BME280;57757;53.198;19.646;2023-04-29T13:00:32;99778.10;;;20.53;32.31
70338;BME280;57757;53.198;19.646;2023-04-29T13:03:02;99778.79;;;20.50;32.25
70338;BME280;57757;53.198;19.646;2023-04-29T13:05:31;99772.30;;;20.42;32.20
70338;BME280;57757;53.198;19.646;2023-04-29T13:07:59;99770.46;;;20.38;32.24
70338;BME280;57757;53.198;19.646;2023-04-29T13:10:27;99767.03;;;20.36;32.24
70338;BME280;57757;53.198;19.646;2023-04-29T13:12:54;99763.57;;;20.33;32.16
70338;BME280;57757;53.198;19.646;2023-04-29T13:15:23;99765.75;;;20.35;32.32
70338;BME280;57757;53.198;19.646;2023-04-29T13:17:51;99771.45;;;20.41;32.30
70338;BME280;57757;53.198;19.646;2023-04-29T13:20:19;99770.36;;;20.39;32.12
70338;BME280;57757;53.198;19.646;2023-04-29T13:22:47;99765.59;;;20.37;32.28